createdAt,value
2022-08-17T00:00:42.810Z,13.70
2022-08-17T00:01:25.597Z,13.00
2022-08-17T00:02:26.912Z,16.10
2022-08-17T00:03:25.193Z,15.00
2022-08-17T00:04:24.526Z,12.50
2022-08-17T00:05:24.703Z,13.90
2022-08-17T00:06:24.492Z,13.40
2022-08-17T00:07:24.974Z,13.00
2022-08-17T00:08:24.503Z,13.20
2022-08-17T00:09:24.532Z,13.00
2022-08-17T00:10:24.427Z,14.10
2022-08-17T00:11:24.453Z,14.10
2022-08-17T00:12:41.203Z,13.30
2022-08-17T00:13:24.633Z,14.80
2022-08-17T00:14:24.413Z,12.30
2022-08-17T00:15:24.392Z,13.30
2022-08-17T00:16:55.461Z,14.10
2022-08-17T00:17:24.376Z,13.80
2022-08-17T00:19:01.766Z,12.10
2022-08-17T00:19:24.423Z,14.40
2022-08-17T00:20:32.041Z,14.60
2022-08-17T00:21:25.299Z,12.80
2022-08-17T00:22:33.172Z,12.30
2022-08-17T00:23:24.331Z,12.20
2022-08-17T00:24:24.352Z,12.30
2022-08-17T00:25:24.322Z,12.10
2022-08-17T00:26:44.228Z,14.00
2022-08-17T00:27:24.303Z,14.70
2022-08-17T00:28:24.311Z,12.50
2022-08-17T00:29:24.462Z,12.20
2022-08-17T00:30:24.783Z,12.10
2022-08-17T00:31:24.272Z,13.40
2022-08-17T00:33:14.415Z,12.60
2022-08-17T00:33:24.367Z,13.50
2022-08-17T00:34:24.292Z,12.50
2022-08-17T00:35:24.322Z,12.70
2022-08-17T00:36:24.250Z,11.40
2022-08-17T00:37:24.240Z,12.50
2022-08-17T00:38:24.242Z,13.00
2022-08-17T00:39:24.267Z,12.40
2022-08-17T00:40:24.640Z,12.60
2022-08-17T00:41:24.200Z,15.00
2022-08-17T00:42:28.833Z,13.60
2022-08-17T00:43:24.540Z,11.30
2022-08-17T00:44:24.549Z,13.60
2022-08-17T00:45:24.191Z,12.40
2022-08-17T00:46:24.170Z,13.30
2022-08-17T00:47:24.163Z,14.60
2022-08-17T00:48:29.907Z,12.20
2022-08-17T00:49:24.334Z,14.10
2022-08-17T00:50:24.220Z,13.10
2022-08-17T00:51:24.220Z,12.40
2022-08-17T00:52:24.139Z,12.40
2022-08-17T00:53:24.125Z,12.90
2022-08-17T00:54:24.121Z,14.30
2022-08-17T00:55:24.120Z,12.80
2022-08-17T00:56:24.111Z,12.20
2022-08-17T00:57:24.100Z,12.20
2022-08-17T00:58:28.785Z,13.00
2022-08-17T00:59:24.080Z,14.30
2022-08-17T01:00:24.847Z,12.70
2022-08-17T01:01:24.118Z,15.00
2022-08-17T01:02:24.060Z,13.00
2022-08-17T01:03:24.059Z,15.60
2022-08-17T01:04:24.118Z,14.40
2022-08-17T01:05:24.058Z,13.30
2022-08-17T01:06:24.042Z,15.20
2022-08-17T01:07:24.030Z,15.60
2022-08-17T01:08:24.027Z,14.00
2022-08-17T01:09:24.019Z,12.40
2022-08-17T01:10:59.497Z,14.30
2022-08-17T01:11:24.001Z,16.00
2022-08-17T01:12:23.999Z,14.90
2022-08-17T01:13:23.991Z,13.90
2022-08-17T01:14:24.013Z,13.40
2022-08-17T01:15:23.988Z,13.80
2022-08-17T01:16:23.968Z,12.10
2022-08-17T01:17:23.955Z,15.70
2022-08-17T01:18:23.958Z,12.80
2022-08-17T01:19:23.937Z,13.00
2022-08-17T01:20:23.957Z,12.40
2022-08-17T01:21:23.929Z,13.80
2022-08-17T01:22:23.950Z,15.30
2022-08-17T01:23:23.968Z,10.80
2022-08-17T01:24:23.914Z,12.80
2022-08-17T01:25:23.903Z,14.00
2022-08-17T01:26:23.907Z,13.70
2022-08-17T01:27:23.908Z,12.60
2022-08-17T01:28:53.246Z,14.40
2022-08-17T01:29:23.877Z,11.50
2022-08-17T01:30:57.188Z,13.50
2022-08-17T01:31:23.877Z,13.50
2022-08-17T01:32:23.856Z,12.20
2022-08-17T01:33:23.846Z,13.10
2022-08-17T01:34:23.847Z,12.40
2022-08-17T01:35:23.827Z,12.60
2022-08-17T01:36:24.125Z,13.20
2022-08-17T01:37:23.814Z,13.60
2022-08-17T01:38:27.187Z,13.60
2022-08-17T01:39:23.915Z,12.60
2022-08-17T01:40:23.812Z,19.00
2022-08-17T01:41:23.815Z,14.10
2022-08-17T01:42:23.806Z,13.00
2022-08-17T01:43:23.834Z,14.60
2022-08-17T01:44:23.797Z,16.20
2022-08-17T01:45:23.784Z,13.50
2022-08-17T01:46:23.874Z,13.80
2022-08-17T01:47:23.755Z,12.70
2022-08-17T01:48:24.133Z,14.40
2022-08-17T01:49:23.734Z,11.90
2022-08-17T01:50:23.737Z,14.00
2022-08-17T01:51:23.754Z,14.90
2022-08-17T01:52:23.724Z,13.10
2022-08-17T01:53:24.136Z,12.40
2022-08-17T01:54:23.705Z,16.00
2022-08-17T01:55:27.307Z,14.80
2022-08-17T01:56:23.706Z,13.50
2022-08-17T01:57:23.684Z,13.10
2022-08-17T01:58:24.644Z,13.70
2022-08-17T01:59:24.544Z,14.10
2022-08-17T02:00:23.675Z,14.60
2022-08-17T02:01:23.725Z,12.40
2022-08-17T02:02:30.593Z,14.50
2022-08-17T02:03:23.744Z,11.60
2022-08-17T02:04:23.634Z,13.40
2022-08-17T02:05:23.844Z,11.50
2022-08-17T02:06:27.822Z,12.80
2022-08-17T02:07:26.068Z,13.00
2022-08-17T02:08:37.008Z,14.10
2022-08-17T02:09:25.316Z,12.40
2022-08-17T02:10:23.696Z,11.80
2022-08-17T02:11:23.734Z,12.70
2022-08-17T02:12:37.733Z,12.90
2022-08-17T02:13:23.572Z,12.30
2022-08-17T02:14:23.563Z,13.50
2022-08-17T02:15:23.578Z,15.30
2022-08-17T02:16:24.021Z,12.20
2022-08-17T02:17:23.543Z,14.30
2022-08-17T02:18:23.542Z,14.00
2022-08-17T02:19:23.551Z,12.20
2022-08-17T02:20:42.523Z,13.90
2022-08-17T02:21:23.982Z,13.60
2022-08-17T02:22:24.194Z,15.00
2022-08-17T02:23:23.511Z,12.60
2022-08-17T02:24:28.150Z,13.10
2022-08-17T02:25:23.481Z,14.70
2022-08-17T02:26:24.059Z,14.10
2022-08-17T02:27:23.511Z,13.20
2022-08-17T02:28:23.471Z,13.70
2022-08-17T02:29:24.481Z,13.50
2022-08-17T02:31:00.309Z,15.40
2022-08-17T02:31:23.459Z,13.50
2022-08-17T02:32:27.575Z,13.00
2022-08-17T02:33:23.661Z,14.50
2022-08-17T02:34:24.283Z,15.80
2022-08-17T02:35:24.153Z,15.10
2022-08-17T02:36:27.302Z,13.30
2022-08-17T02:37:23.490Z,14.30
2022-08-17T02:38:23.400Z,13.20
2022-08-17T02:39:23.393Z,13.00
2022-08-17T02:40:35.768Z,14.70
2022-08-17T02:41:23.385Z,14.10
2022-08-17T02:42:23.412Z,14.30
2022-08-17T02:43:23.360Z,12.80
2022-08-17T02:44:38.685Z,14.80
2022-08-17T02:45:23.730Z,13.40
2022-08-17T02:46:23.340Z,16.80
2022-08-17T02:47:23.461Z,15.70
2022-08-17T02:48:30.507Z,15.20
2022-08-17T02:49:23.330Z,12.20
2022-08-17T02:50:23.330Z,15.70
2022-08-17T02:51:23.309Z,14.70
2022-08-17T02:52:43.849Z,15.10
2022-08-17T02:53:25.695Z,13.40
2022-08-17T02:54:39.825Z,14.70
2022-08-17T02:55:23.274Z,14.10
2022-08-17T02:56:23.276Z,14.80
2022-08-17T02:57:23.358Z,13.10
2022-08-17T02:58:34.774Z,13.70
2022-08-17T02:59:23.262Z,16.70
2022-08-17T03:00:23.249Z,13.80
2022-08-17T03:01:23.298Z,15.00
2022-08-17T03:02:23.249Z,13.90
2022-08-17T03:03:23.228Z,18.80
2022-08-17T03:04:23.214Z,15.50
2022-08-17T03:05:23.219Z,18.00
2022-08-17T03:06:23.209Z,14.20
2022-08-17T03:07:23.206Z,16.10
2022-08-17T03:08:23.197Z,16.40
2022-08-17T03:09:23.201Z,14.50
2022-08-17T03:10:23.177Z,15.40
2022-08-17T03:11:23.207Z,18.00
2022-08-17T03:12:23.888Z,15.80
2022-08-17T03:13:23.247Z,15.20
2022-08-17T03:14:26.030Z,16.00
2022-08-17T03:15:23.139Z,14.70
2022-08-17T03:16:23.132Z,17.70
2022-08-17T03:17:23.158Z,14.20
2022-08-17T03:18:24.536Z,16.40
2022-08-17T03:19:23.128Z,16.70
2022-08-17T03:20:23.118Z,14.60
2022-08-17T03:21:23.108Z,17.60
2022-08-17T03:22:36.483Z,15.30
2022-08-17T03:23:24.156Z,14.50
2022-08-17T03:24:28.825Z,15.90
2022-08-17T03:25:23.078Z,15.60
2022-08-17T03:26:23.077Z,14.90
2022-08-17T03:27:23.756Z,16.30
2022-08-17T03:28:23.065Z,14.90
2022-08-17T03:29:23.069Z,15.50
2022-08-17T03:30:23.056Z,16.50
2022-08-17T03:31:23.045Z,15.50
2022-08-17T03:32:23.196Z,14.60
2022-08-17T03:33:23.035Z,14.10
2022-08-17T03:34:23.283Z,14.40
2022-08-17T03:35:23.396Z,15.30
2022-08-17T03:36:23.017Z,14.60
2022-08-17T03:37:23.005Z,14.10
2022-08-17T03:38:23.271Z,17.20
2022-08-17T03:39:23.144Z,15.60
2022-08-17T03:40:34.478Z,18.30
2022-08-17T03:41:23.475Z,14.70
2022-08-17T03:42:32.072Z,15.20
2022-08-17T03:43:22.953Z,13.40
2022-08-17T03:44:22.946Z,15.00
2022-08-17T03:45:22.935Z,17.40
2022-08-17T03:46:27.607Z,14.50
2022-08-17T03:47:22.935Z,15.40
2022-08-17T03:48:22.935Z,15.00
2022-08-17T03:49:22.916Z,15.70
2022-08-17T03:50:22.914Z,14.80
2022-08-17T03:51:22.902Z,16.30
2022-08-17T03:52:22.914Z,15.80
2022-08-17T03:53:22.871Z,16.40
2022-08-17T03:54:22.876Z,15.50
2022-08-17T03:55:23.094Z,14.00
2022-08-17T03:56:22.863Z,15.80
2022-08-17T03:57:22.866Z,14.60
2022-08-17T03:58:22.846Z,15.50
2022-08-17T03:59:22.834Z,16.90
2022-08-17T04:00:22.854Z,16.40
2022-08-17T04:01:22.899Z,13.80
2022-08-17T04:02:22.831Z,15.70
2022-08-17T04:03:22.803Z,16.60
2022-08-17T04:04:27.545Z,14.20
2022-08-17T04:05:22.797Z,16.60
2022-08-17T04:06:23.611Z,16.30
2022-08-17T04:07:22.813Z,15.80
2022-08-17T04:08:23.253Z,14.90
2022-08-17T04:09:22.773Z,12.80
2022-08-17T04:10:26.395Z,15.90
2022-08-17T04:11:23.211Z,16.50
2022-08-17T04:12:22.851Z,14.90
2022-08-17T04:13:24.972Z,15.60
2022-08-17T04:14:22.761Z,15.50
2022-08-17T04:15:22.730Z,14.00
2022-08-17T04:16:23.341Z,15.90
2022-08-17T04:17:22.731Z,14.50
2022-08-17T04:18:22.719Z,14.60
2022-08-17T04:19:22.701Z,14.40
2022-08-17T04:20:22.703Z,17.50
2022-08-17T04:21:23.711Z,14.20
2022-08-17T04:22:32.024Z,15.30
2022-08-17T04:23:23.239Z,14.60
2022-08-17T04:24:22.669Z,13.90
2022-08-17T04:25:22.672Z,13.80
2022-08-17T04:26:52.981Z,14.80
2022-08-17T04:27:23.459Z,13.60
2022-08-17T04:28:22.648Z,12.90
2022-08-17T04:29:22.699Z,12.00
2022-08-17T04:30:22.626Z,13.70
2022-08-17T04:31:22.776Z,13.00
2022-08-17T04:33:02.282Z,12.70
2022-08-17T04:33:22.899Z,13.50
2022-08-17T04:34:22.608Z,16.40
2022-08-17T04:35:22.621Z,13.50
2022-08-17T04:36:22.599Z,14.00
2022-08-17T04:37:22.739Z,12.60
2022-08-17T04:38:22.737Z,13.80
2022-08-17T04:39:22.549Z,12.80
2022-08-17T04:40:22.552Z,12.90
2022-08-17T04:41:22.955Z,14.40
2022-08-17T04:42:23.007Z,12.90
2022-08-17T04:43:22.580Z,13.10
2022-08-17T04:44:37.117Z,11.90
2022-08-17T04:45:22.742Z,12.50
2022-08-17T04:46:23.048Z,14.80
2022-08-17T04:47:22.570Z,16.20
2022-08-17T04:48:22.729Z,13.50
2022-08-17T04:49:22.490Z,11.80
2022-08-17T04:50:22.491Z,12.70
2022-08-17T04:51:23.402Z,14.00
2022-08-17T04:52:32.306Z,12.70
2022-08-17T04:53:22.519Z,11.40
2022-08-17T04:54:23.178Z,12.50
2022-08-17T04:55:22.609Z,11.80
2022-08-17T04:56:22.440Z,12.30
2022-08-17T04:57:22.430Z,11.40
2022-08-17T04:58:22.517Z,12.30
2022-08-17T04:59:22.788Z,11.60
2022-08-17T05:00:23.299Z,13.20
2022-08-17T05:01:24.319Z,12.50
2022-08-17T05:02:22.527Z,13.10
2022-08-17T05:03:22.548Z,11.10
2022-08-17T05:04:34.073Z,11.70
2022-08-17T05:05:22.458Z,13.10
2022-08-17T05:06:22.388Z,11.20
2022-08-17T05:07:24.620Z,12.10
2022-08-17T05:08:22.420Z,10.00
2022-08-17T05:09:22.646Z,12.90
2022-08-17T05:10:22.359Z,11.70
2022-08-17T05:11:22.757Z,12.30
2022-08-17T05:12:22.457Z,11.90
2022-08-17T05:13:22.357Z,11.30
2022-08-17T05:14:22.337Z,11.70
2022-08-17T05:15:22.319Z,13.60
2022-08-17T05:16:22.593Z,11.40
2022-08-17T05:17:22.447Z,12.10
2022-08-17T05:18:22.455Z,11.80
2022-08-17T05:19:22.286Z,13.40
2022-08-17T05:20:22.284Z,12.50
2022-08-17T05:21:22.287Z,12.50
2022-08-17T05:22:22.282Z,13.90
2022-08-17T05:23:22.275Z,13.90
2022-08-17T05:24:42.673Z,12.00
2022-08-17T05:25:24.965Z,12.40
2022-08-17T05:26:26.977Z,12.80
2022-08-17T05:27:22.281Z,11.90
2022-08-17T05:28:24.112Z,13.60
2022-08-17T05:29:22.215Z,11.50
2022-08-17T05:30:22.326Z,14.80
2022-08-17T05:31:22.203Z,11.60
2022-08-17T05:32:38.184Z,12.40
2022-08-17T05:33:22.195Z,10.30
2022-08-17T05:34:22.191Z,13.40
2022-08-17T05:35:22.184Z,12.90
2022-08-17T05:36:37.967Z,12.10
2022-08-17T05:37:22.812Z,13.90
2022-08-17T05:38:22.165Z,13.80
2022-08-17T05:39:22.156Z,12.10
2022-08-17T05:40:22.146Z,12.80
2022-08-17T05:41:22.135Z,12.10
2022-08-17T05:42:22.157Z,12.70
2022-08-17T05:43:22.185Z,12.90
2022-08-17T05:44:22.314Z,12.00
2022-08-17T05:45:39.877Z,11.40
2022-08-17T05:46:22.154Z,12.90
2022-08-17T05:47:22.112Z,11.60
2022-08-17T05:48:22.234Z,13.80
2022-08-17T05:49:22.075Z,10.40
2022-08-17T05:50:25.739Z,12.80
2022-08-17T05:51:22.066Z,11.70
2022-08-17T05:52:22.074Z,10.50
2022-08-17T05:53:22.204Z,11.50
2022-08-17T05:54:22.043Z,11.30
2022-08-17T05:55:22.063Z,11.30
2022-08-17T05:56:29.465Z,11.50
2022-08-17T05:57:22.025Z,12.90
2022-08-17T05:58:22.214Z,11.80
2022-08-17T05:59:22.003Z,9.80
2022-08-17T06:00:22.025Z,11.90
2022-08-17T06:01:22.035Z,13.20
2022-08-17T06:02:22.987Z,11.10
2022-08-17T06:03:21.974Z,13.80
2022-08-17T06:04:22.793Z,11.60
2022-08-17T06:05:21.963Z,11.30
2022-08-17T06:06:21.963Z,12.70
2022-08-17T06:07:23.013Z,11.20
2022-08-17T06:08:21.967Z,11.40
2022-08-17T06:09:27.663Z,11.60
2022-08-17T06:10:22.643Z,13.50
2022-08-17T06:11:22.892Z,11.10
2022-08-17T06:12:22.405Z,14.40
2022-08-17T06:13:21.920Z,11.50
2022-08-17T06:14:21.975Z,13.00
2022-08-17T06:15:21.921Z,10.60
2022-08-17T06:16:33.628Z,10.50
2022-08-17T06:17:21.873Z,11.90
2022-08-17T06:18:21.898Z,16.10
2022-08-17T06:19:21.890Z,13.20
2022-08-17T06:20:21.872Z,11.80
2022-08-17T06:21:23.550Z,12.50
2022-08-17T06:22:21.975Z,15.00
2022-08-17T06:23:21.846Z,13.70
2022-08-17T06:24:22.283Z,15.50
2022-08-17T06:25:21.831Z,11.90
2022-08-17T06:26:21.831Z,12.70
2022-08-17T06:27:21.821Z,12.70
2022-08-17T06:28:21.813Z,12.20
2022-08-17T06:29:22.614Z,14.30
2022-08-17T06:30:21.793Z,13.50
2022-08-17T06:31:21.793Z,12.60
2022-08-17T06:32:21.792Z,12.00
2022-08-17T06:33:21.775Z,13.60
2022-08-17T06:34:21.797Z,13.00
2022-08-17T06:35:21.773Z,12.40
2022-08-17T06:36:21.772Z,15.50
2022-08-17T06:37:22.244Z,14.70
2022-08-17T06:38:37.637Z,12.20
2022-08-17T06:39:21.751Z,16.80
2022-08-17T06:40:21.730Z,14.10
2022-08-17T06:41:21.727Z,13.70
2022-08-17T06:43:02.617Z,13.50
2022-08-17T06:43:21.701Z,13.00
2022-08-17T06:44:43.651Z,11.60
2022-08-17T06:45:21.783Z,13.50
2022-08-17T06:46:22.021Z,13.10
2022-08-17T06:47:28.804Z,15.20
2022-08-17T06:48:21.944Z,13.00
2022-08-17T06:49:22.492Z,13.30
2022-08-17T06:50:21.672Z,14.70
2022-08-17T06:51:21.662Z,11.90
2022-08-17T06:52:43.386Z,12.20
2022-08-17T06:53:21.640Z,11.20
2022-08-17T06:54:21.683Z,13.20
2022-08-17T06:55:21.623Z,12.40
2022-08-17T06:56:21.622Z,14.20
2022-08-17T06:57:21.618Z,13.10
2022-08-17T06:58:21.611Z,14.80
2022-08-17T06:59:22.101Z,12.30
2022-08-17T07:00:21.592Z,15.40
2022-08-17T07:01:21.608Z,10.30
2022-08-17T07:02:29.132Z,10.90
2022-08-17T07:03:22.191Z,12.40
2022-08-17T07:04:21.563Z,12.90
2022-08-17T07:05:22.148Z,14.70
2022-08-17T07:06:21.550Z,14.50
2022-08-17T07:07:21.540Z,11.30
2022-08-17T07:08:23.412Z,12.30
2022-08-17T07:09:21.581Z,11.60
2022-08-17T07:10:21.542Z,11.60
2022-08-17T07:11:21.510Z,10.80
2022-08-17T07:12:21.518Z,14.00
2022-08-17T07:13:21.515Z,10.40
2022-08-17T07:14:21.501Z,12.60
2022-08-17T07:15:21.577Z,13.00
2022-08-17T07:16:21.800Z,13.80
2022-08-17T07:17:22.010Z,12.00
2022-08-17T07:18:21.770Z,14.20
2022-08-17T07:19:21.461Z,15.10
2022-08-17T07:20:21.534Z,14.20
2022-08-17T07:21:26.181Z,14.00
2022-08-17T07:22:21.449Z,13.30
2022-08-17T07:23:21.431Z,14.60
2022-08-17T07:24:30.174Z,11.40
2022-08-17T07:25:22.391Z,13.50
2022-08-17T07:26:21.478Z,13.80
2022-08-17T07:27:21.475Z,12.30
2022-08-17T07:28:21.538Z,16.20
2022-08-17T07:29:21.419Z,14.10
2022-08-17T07:30:21.444Z,14.70
2022-08-17T07:31:21.380Z,12.50
2022-08-17T07:32:21.410Z,13.80
2022-08-17T07:33:21.810Z,12.30
2022-08-17T07:34:21.801Z,14.40
2022-08-17T07:35:21.406Z,13.20
2022-08-17T07:36:21.561Z,15.00
2022-08-17T07:37:21.411Z,12.80
2022-08-17T07:38:26.349Z,13.30
2022-08-17T07:39:21.760Z,12.00
2022-08-17T07:40:21.492Z,11.70
2022-08-17T07:41:21.390Z,14.30
2022-08-17T07:42:21.479Z,13.90
2022-08-17T07:43:22.239Z,12.00
2022-08-17T07:44:21.400Z,11.90
2022-08-17T07:45:21.491Z,13.20
2022-08-17T07:46:21.732Z,14.60
2022-08-17T07:47:21.269Z,11.80
2022-08-17T07:48:21.490Z,10.70
2022-08-17T07:49:21.259Z,15.30
2022-08-17T07:50:25.745Z,12.60
2022-08-17T07:51:22.250Z,14.00
2022-08-17T07:52:48.436Z,14.00
2022-08-17T07:53:21.229Z,14.30
2022-08-17T07:54:21.210Z,11.90
2022-08-17T07:55:21.260Z,13.30
2022-08-17T07:56:21.508Z,10.90
2022-08-17T07:57:21.200Z,10.50
2022-08-17T07:58:21.220Z,11.80
2022-08-17T07:59:23.682Z,11.80
2022-08-17T08:00:23.777Z,11.10
2022-08-17T08:01:21.208Z,11.00
2022-08-17T08:02:21.317Z,10.90
2022-08-17T08:03:21.263Z,12.90
2022-08-17T08:04:29.141Z,13.30
2022-08-17T08:05:49.290Z,10.50
2022-08-17T08:06:21.149Z,11.50
2022-08-17T08:07:21.475Z,10.30
2022-08-17T08:08:21.119Z,9.20
2022-08-17T08:09:21.271Z,10.70
2022-08-17T08:10:21.206Z,10.30
2022-08-17T08:11:21.139Z,9.90
2022-08-17T08:12:21.213Z,11.00
2022-08-17T08:13:21.094Z,10.40
2022-08-17T08:14:21.080Z,11.60
2022-08-17T08:15:21.859Z,9.70
2022-08-17T08:16:21.131Z,11.00
2022-08-17T08:17:21.066Z,15.30
2022-08-17T08:18:38.605Z,14.80
2022-08-17T08:19:21.266Z,9.40
2022-08-17T08:20:51.261Z,12.60
2022-08-17T08:21:21.110Z,11.00
2022-08-17T08:22:21.191Z,13.10
2022-08-17T08:23:21.218Z,10.70
2022-08-17T08:24:21.014Z,12.40
2022-08-17T08:25:21.000Z,13.50
2022-08-17T08:26:21.049Z,13.20
2022-08-17T08:27:20.991Z,11.30
2022-08-17T08:28:21.291Z,11.20
2022-08-17T08:29:20.990Z,11.80
2022-08-17T08:30:20.987Z,12.20
2022-08-17T08:31:21.167Z,13.00
2022-08-17T08:32:21.106Z,10.00
2022-08-17T08:33:20.968Z,11.30
2022-08-17T08:34:58.817Z,14.10
2022-08-17T08:35:21.262Z,11.80
2022-08-17T08:37:14.226Z,10.50
2022-08-17T08:37:32.735Z,13.10
2022-08-17T08:38:20.919Z,8.90
2022-08-17T08:39:20.920Z,13.60
2022-08-17T08:40:20.916Z,12.30
2022-08-17T08:41:20.919Z,11.30
2022-08-17T08:42:20.947Z,11.10
2022-08-17T08:43:20.888Z,12.30
2022-08-17T08:44:20.912Z,10.20
2022-08-17T08:45:20.871Z,12.70
2022-08-17T08:46:20.892Z,10.40
2022-08-17T08:47:20.969Z,11.60
2022-08-17T08:48:22.861Z,12.20
2022-08-17T08:49:33.852Z,12.30
2022-08-17T08:50:30.322Z,12.80
2022-08-17T08:51:20.850Z,9.70
2022-08-17T08:52:20.850Z,12.00
2022-08-17T08:53:20.889Z,10.90
2022-08-17T08:54:26.889Z,11.70
2022-08-17T08:55:20.811Z,9.70
2022-08-17T08:56:20.815Z,12.20
2022-08-17T08:57:29.105Z,10.20
2022-08-17T08:58:30.663Z,11.10
2022-08-17T08:59:21.001Z,11.00
2022-08-17T09:00:20.792Z,10.10
2022-08-17T09:01:20.919Z,11.80
2022-08-17T09:02:20.777Z,14.90
2022-08-17T09:03:20.761Z,11.70
2022-08-17T09:04:25.129Z,12.10
2022-08-17T09:05:20.791Z,15.70
2022-08-17T09:06:33.522Z,9.80
2022-08-17T09:07:20.740Z,11.10
2022-08-17T09:08:20.711Z,12.70
2022-08-17T09:09:20.709Z,11.10
2022-08-17T09:10:21.575Z,11.20
2022-08-17T09:11:20.744Z,11.60
2022-08-17T09:12:20.741Z,11.60
2022-08-17T09:13:20.741Z,11.50
2022-08-17T09:14:22.036Z,12.20
2022-08-17T09:15:20.678Z,10.20
2022-08-17T09:16:20.678Z,10.70
2022-08-17T09:17:20.663Z,10.60
2022-08-17T09:19:02.955Z,11.60
2022-08-17T09:19:20.648Z,9.90
2022-08-17T09:20:27.681Z,11.20
2022-08-17T09:21:20.650Z,12.80
2022-08-17T09:22:20.829Z,14.70
2022-08-17T09:23:20.680Z,10.40
2022-08-17T09:24:21.005Z,11.10
2022-08-17T09:25:20.611Z,11.90
2022-08-17T09:26:21.011Z,11.80
2022-08-17T09:27:20.820Z,9.50
2022-08-17T09:28:20.593Z,10.30
2022-08-17T09:29:20.581Z,10.00
2022-08-17T09:30:20.570Z,11.60
2022-08-17T09:31:20.593Z,10.60
2022-08-17T09:32:20.550Z,9.00
2022-08-17T09:33:20.551Z,10.40
2022-08-17T09:34:20.541Z,9.50
2022-08-17T09:35:20.742Z,11.00
2022-08-17T09:36:20.920Z,10.10
2022-08-17T09:37:20.954Z,14.20
2022-08-17T09:38:20.521Z,10.80
2022-08-17T09:39:20.521Z,10.50
2022-08-17T09:40:20.595Z,12.20
2022-08-17T09:41:21.153Z,10.10
2022-08-17T09:42:20.541Z,9.80
2022-08-17T09:43:20.611Z,8.80
2022-08-17T09:44:23.097Z,9.80
2022-08-17T09:45:20.514Z,9.90
2022-08-17T09:46:20.581Z,10.20
2022-08-17T09:47:20.470Z,12.50
2022-08-17T09:48:20.684Z,10.00
2022-08-17T09:49:25.033Z,9.30
2022-08-17T09:50:55.243Z,8.20
2022-08-17T09:51:20.451Z,11.00
2022-08-17T09:52:20.469Z,9.30
2022-08-17T09:53:20.526Z,12.00
2022-08-17T09:54:38.553Z,8.90
2022-08-17T09:55:20.623Z,10.90
2022-08-17T09:56:20.670Z,10.40
2022-08-17T09:57:35.827Z,9.30
2022-08-17T09:58:20.431Z,10.20
2022-08-17T09:59:20.395Z,9.50
2022-08-17T10:00:20.364Z,11.20
2022-08-17T10:01:20.480Z,11.10
2022-08-17T10:02:20.363Z,8.10
2022-08-17T10:03:20.358Z,8.50
2022-08-17T10:04:20.753Z,9.50
2022-08-17T10:05:20.342Z,8.70
2022-08-17T10:06:22.109Z,8.30
2022-08-17T10:07:20.813Z,9.50
2022-08-17T10:08:21.671Z,10.60
2022-08-17T10:09:20.319Z,7.80
2022-08-17T10:10:20.328Z,6.50
2022-08-17T10:11:20.331Z,8.00
2022-08-17T10:12:20.474Z,8.40
2022-08-17T10:13:20.933Z,10.00
2022-08-17T10:14:37.566Z,9.50
2022-08-17T10:15:20.322Z,9.10
2022-08-17T10:16:20.585Z,11.80
2022-08-17T10:17:20.362Z,7.40
2022-08-17T10:18:20.322Z,10.10
2022-08-17T10:19:20.283Z,8.30
2022-08-17T10:20:20.471Z,9.40
2022-08-17T10:21:20.420Z,9.90
2022-08-17T10:22:34.812Z,7.90
2022-08-17T10:23:20.311Z,8.40
2022-08-17T10:24:20.315Z,10.10
2022-08-17T10:25:22.183Z,8.80
2022-08-17T10:26:20.223Z,9.50
2022-08-17T10:27:20.221Z,10.30
2022-08-17T10:28:20.626Z,7.40
2022-08-17T10:29:20.338Z,8.70
2022-08-17T10:30:20.263Z,9.20
2022-08-17T10:31:36.243Z,8.40
2022-08-17T10:32:20.160Z,9.40
2022-08-17T10:33:20.415Z,8.80
2022-08-17T10:34:20.168Z,9.90
2022-08-17T10:35:20.143Z,9.60
2022-08-17T10:36:20.154Z,10.40
2022-08-17T10:37:20.212Z,9.80
2022-08-17T10:38:21.641Z,13.90
2022-08-17T10:39:20.322Z,8.40
2022-08-17T10:40:20.187Z,7.70
2022-08-17T10:41:20.124Z,8.50
2022-08-17T10:42:32.516Z,9.10
2022-08-17T10:43:20.084Z,9.80
2022-08-17T10:44:40.119Z,10.30
2022-08-17T10:45:20.142Z,8.70
2022-08-17T10:46:31.102Z,9.80
2022-08-17T10:47:20.063Z,9.20
2022-08-17T10:48:20.064Z,9.20
2022-08-17T10:49:20.374Z,9.20
2022-08-17T10:50:20.131Z,9.10
2022-08-17T10:51:20.083Z,10.70
2022-08-17T10:52:20.044Z,9.30
2022-08-17T10:53:20.082Z,9.00
2022-08-17T10:54:20.015Z,6.00
2022-08-17T10:55:20.612Z,7.20
2022-08-17T10:56:20.031Z,7.10
2022-08-17T10:57:19.997Z,5.20
2022-08-17T10:58:19.996Z,5.70
2022-08-17T10:59:19.993Z,6.30
2022-08-17T11:00:22.951Z,6.50
2022-08-17T11:01:20.012Z,6.20
2022-08-17T11:02:20.396Z,5.80
2022-08-17T11:03:20.104Z,6.30
2022-08-17T11:04:20.006Z,10.20
2022-08-17T11:05:20.944Z,7.00
2022-08-17T11:06:19.944Z,6.80
2022-08-17T11:07:19.924Z,6.30
2022-08-17T11:08:19.913Z,5.70
2022-08-17T11:09:20.105Z,9.10
2022-08-17T11:10:20.163Z,7.80
2022-08-17T11:11:19.913Z,5.90
2022-08-17T11:12:19.893Z,6.50
2022-08-17T11:13:19.895Z,8.00
2022-08-17T11:14:19.873Z,5.40
2022-08-17T11:15:19.884Z,8.00
2022-08-17T11:16:20.475Z,6.20
2022-08-17T11:17:19.934Z,4.90
2022-08-17T11:18:19.855Z,4.80
2022-08-17T11:19:19.851Z,5.60
2022-08-17T11:20:19.840Z,5.80
2022-08-17T11:21:19.855Z,8.80
2022-08-17T11:22:19.841Z,5.40
2022-08-17T11:23:19.874Z,6.10
2022-08-17T11:24:19.950Z,8.90
2022-08-17T11:25:19.866Z,6.60
2022-08-17T11:26:19.811Z,6.30
2022-08-17T11:27:19.797Z,5.70
2022-08-17T11:28:19.783Z,6.80
2022-08-17T11:29:19.774Z,7.60
2022-08-17T11:30:20.247Z,6.30
2022-08-17T11:31:20.025Z,7.10
2022-08-17T11:32:19.754Z,7.90
2022-08-17T11:33:19.797Z,5.80
2022-08-17T11:34:19.764Z,5.60
2022-08-17T11:35:19.733Z,6.20
2022-08-17T11:36:19.755Z,6.40
2022-08-17T11:37:19.737Z,7.10
2022-08-17T11:38:19.727Z,6.00
2022-08-17T11:39:20.585Z,5.70
2022-08-17T11:40:20.737Z,5.00
2022-08-17T11:41:19.938Z,7.50
2022-08-17T11:42:19.695Z,7.40
2022-08-17T11:43:19.683Z,6.20
2022-08-17T11:44:19.676Z,6.30
2022-08-17T11:45:32.262Z,6.00
2022-08-17T11:46:19.695Z,7.60
2022-08-17T11:47:19.665Z,7.10
2022-08-17T11:48:28.608Z,8.40
2022-08-17T11:49:19.832Z,8.40
2022-08-17T11:50:21.646Z,7.30
2022-08-17T11:51:19.814Z,6.40
2022-08-17T11:52:19.644Z,7.90
2022-08-17T11:53:19.624Z,7.10
2022-08-17T11:54:32.871Z,6.00
2022-08-17T11:55:35.025Z,7.20
2022-08-17T11:56:19.695Z,6.70
2022-08-17T11:57:20.037Z,7.00
2022-08-17T11:58:19.585Z,6.40
2022-08-17T11:59:19.573Z,6.50
2022-08-17T12:00:19.575Z,6.50
2022-08-17T12:01:19.835Z,7.70
2022-08-17T12:02:19.571Z,6.40
2022-08-17T12:03:19.584Z,7.30
2022-08-17T12:04:19.612Z,5.60
2022-08-17T12:05:19.904Z,8.60
2022-08-17T12:06:19.553Z,6.00
2022-08-17T12:07:19.523Z,6.50
2022-08-17T12:08:19.527Z,6.10
2022-08-17T12:09:19.514Z,5.50
2022-08-17T12:10:19.525Z,6.00
2022-08-17T12:11:58.650Z,10.00
2022-08-17T12:12:19.645Z,6.10
2022-08-17T12:13:19.484Z,6.30
2022-08-17T12:14:26.912Z,7.40
2022-08-17T12:15:19.475Z,5.10
2022-08-17T12:16:19.634Z,5.60
2022-08-17T12:17:24.712Z,7.60
2022-08-17T12:18:19.813Z,7.40
2022-08-17T12:19:19.464Z,7.10
2022-08-17T12:20:19.445Z,7.90
2022-08-17T12:21:19.528Z,6.10
2022-08-17T12:22:19.425Z,8.20
2022-08-17T12:23:19.411Z,6.60
2022-08-17T12:24:19.407Z,8.80
2022-08-17T12:25:19.404Z,7.60
2022-08-17T12:26:19.799Z,5.70
2022-08-17T12:27:19.846Z,8.40
2022-08-17T12:28:20.285Z,6.50
2022-08-17T12:29:35.676Z,7.40
2022-08-17T12:30:19.394Z,7.20
2022-08-17T12:31:20.014Z,7.80
2022-08-17T12:32:19.354Z,6.30
2022-08-17T12:33:25.483Z,5.90
2022-08-17T12:34:20.075Z,6.50
2022-08-17T12:35:19.335Z,5.10
2022-08-17T12:36:19.376Z,7.60
2022-08-17T12:37:19.326Z,7.80
2022-08-17T12:38:32.681Z,7.70
2022-08-17T12:39:21.355Z,8.00
2022-08-17T12:40:19.305Z,5.80
2022-08-17T12:41:19.635Z,6.60
2022-08-17T12:42:19.296Z,6.30
2022-08-17T12:43:20.065Z,5.50
2022-08-17T12:44:19.304Z,6.80
2022-08-17T12:45:19.292Z,5.10
2022-08-17T12:46:19.761Z,7.30
2022-08-17T12:47:22.433Z,7.00
2022-08-17T12:48:19.255Z,7.20
2022-08-17T12:49:20.256Z,4.80
2022-08-17T12:50:28.177Z,8.80
2022-08-17T12:51:19.297Z,6.20
2022-08-17T12:52:19.224Z,7.40
2022-08-17T12:53:20.135Z,7.10
2022-08-17T12:54:19.278Z,6.90
2022-08-17T12:55:19.216Z,8.60
2022-08-17T12:56:19.215Z,9.60
2022-08-17T12:57:19.196Z,8.20
2022-08-17T12:58:19.238Z,9.00